Impacts METAR Board INFO
IDs:

KBWI - Baltimore-Washington, MD, US

Updated at: 2126 UTC 17 Dec 2017
Potential Impact None Slight Moderate High
Time17/09Z 17/10Z 17/11Z 17/12Z 17/13Z 17/14Z 17/15Z 17/16Z 17/17Z 17/18Z 17/19Z 17/20Z 17/21Z
VIS10 10 10 10 9 10 10 10 9 9 9 9 9
CIG-- -- 250 250 250 250 250 250 250 170 150 130 140
CoverSCTFEWBKNBKNOVCOVCBKNOVCBKNOVCOVCOVCOVC
FltCatVFRVFRVFRVFRVFRVFRVFRVFRVFRVFRVFRVFRVFR
WX--------------------------
WDir26021026003000600120110908030
WSpd3 4 3 0 3 0 3 0 3 5 6 4 4
WGst-- -- -- -- -- -- -- -- -- -- -- -- --
Raw hourly METARs
KBWI 170854Z 26003KT 10SM SCT250 M02/M04 A3022 RMK AO2 SLP236 T10221044 51008
KBWI 170954Z 21004KT 10SM FEW250 M03/M04 A3022 RMK AO2 SLP233 T10331044
KBWI 171054Z 26003KT 10SM BKN250 M03/M04 A3023 RMK AO2 SLP237 T10331044 $
KBWI 171154Z COR 00000KT 10SM BKN250 M02/M04 A3025 RMK AO2 SLP244 T10171039 11011 21039 53008
KBWI 171254Z 30003KT 9SM OVC250 M02/M03 A3025 RMK AO2 SLP245 T10221033
KBWI 171354Z 00000KT 10SM OVC250 02/M02 A3026 RMK AO2 SLP248 T00221022
KBWI 171454Z 06003KT 10SM SCT120 BKN250 05/M01 A3026 RMK AO2 SLP249 T00501011 53005
KBWI 171554Z 00000KT 10SM OVC250 07/M01 A3027 RMK AO2 SLP250 T00721011
KBWI 171654Z 12003KT 9SM BKN250 08/M01 A3025 RMK AO2 SLP244 T00781006
KBWI 171754Z 11005KT 9SM BKN170 OVC250 09/M01 A3021 RMK AO2 SLP230 T00891006 10094 21022 58018
KBWI 171854Z 09006KT 9SM BKN150 OVC250 09/01 A3019 RMK AO2 SLP224 T00890011
KBWI 171954Z 08004KT 9SM OVC130 07/01 A3019 RMK AO2 SLP225 T00670006
KBWI 172054Z 03004KT 9SM SCT120 OVC140 07/00 A3019 RMK AO2 SLP225 VIRGA SW T00670000 55006